Time;durP1;ratioP1;P1;durP2;ratioP2;P2;SDS_P1;SDS_P2;PMS_P1;PMS_P2;Temp;Humidity;BMP_temperature;BMP_pressure;BME280_temperature;BME280_humidity;BME280_pressure;Samples;Min_cycle;Max_cycle;Signal;HPM_P1;HPM_P2
2021/12/06 00:01:20;;;;;;;58.78;26.80;;;2.10;99.90;;;;;;4942254;29;20485;-89
2021/12/06 00:04:09;;;;;;;58.22;27.20;;;1.60;99.90;;;;;;4926177;29;20102;-89
2021/12/06 00:06:38;;;;;;;68.20;29.92;;;2.00;99.90;;;;;;4925796;29;20031;-89
2021/12/06 00:09:13;;;;;;;61.45;29.70;;;1.50;99.90;;;;;;4911011;29;20044;-89
2021/12/06 00:11:39;;;;;;;59.95;25.38;;;2.10;99.90;;;;;;4926348;29;20048;-89
2021/12/06 00:14:09;;;;;;;61.75;30.92;;;1.30;99.90;;;;;;4926351;29;20028;-89
2021/12/06 00:16:36;;;;;;;61.75;26.45;;;1.60;99.90;;;;;;4926518;29;20028;-89
2021/12/06 00:19:06;;;;;;;69.50;32.05;;;1.70;99.90;;;;;;4926324;29;20096;-89
2021/12/06 00:21:33;;;;;;;69.22;30.20;;;1.60;99.90;;;;;;4925985;29;20040;-89
2021/12/06 00:23:59;;;;;;;62.65;28.20;;;1.60;99.90;;;;;;4910391;29;20034;-89
2021/12/06 00:26:25;;;;;;;64.32;29.13;;;1.60;99.90;;;;;;4925506;29;20052;-89
2021/12/06 00:28:57;;;;;;;62.53;26.85;;;1.60;99.90;;;;;;4925812;29;20032;-89
2021/12/06 00:31:24;;;;;;;59.30;26.90;;;1.70;99.90;;;;;;4926041;29;20016;-89
2021/12/06 00:33:59;;;;;;;64.90;31.08;;;1.70;99.90;;;;;;4925724;29;20043;-89
2021/12/06 00:36:28;;;;;;;67.60;28.98;;;1.70;99.90;;;;;;4910343;29;20024;-89
2021/12/06 00:38:55;;;;;;;55.88;22.98;;;2.40;99.90;;;;;;4942303;29;20040;-87
2021/12/06 00:41:21;;;;;;;65.78;27.65;;;1.70;99.90;;;;;;4910554;29;20060;-88
2021/12/06 00:43:47;;;;;;;64.97;29.40;;;1.70;99.90;;;;;;4942560;29;20028;-88
2021/12/06 00:46:15;;;;;;;61.90;28.73;;;1.70;99.90;;;;;;4925948;29;20024;-89
2021/12/06 00:48:46;;;;;;;70.35;29.92;;;1.70;99.90;;;;;;4910519;29;20060;-88
2021/12/06 00:51:13;;;;;;;69.03;29.63;;;1.70;99.90;;;;;;4925912;29;20065;-88
2021/12/06 00:53:40;;;;;;;71.72;29.83;;;1.20;99.90;;;;;;4942513;29;20036;-89
2021/12/06 00:56:08;;;;;;;69.72;29.38;;;1.60;99.90;;;;;;4910023;29;20043;-89
2021/12/06 00:58:34;;;;;;;74.45;29.73;;;2.10;99.90;;;;;;4925953;29;20040;-89
2021/12/06 01:01:00;;;;;;;72.00;31.55;;;2.00;99.90;;;;;;4925469;29;20024;-90
2021/12/06 01:03:28;;;;;;;;;;;2.20;99.90;;;;;;4925777;29;20024;-89
2021/12/06 01:05:54;;;;;;;71.50;29.52;;;2.10;99.90;;;;;;4925363;29;19911;-88
2021/12/06 01:08:20;;;;;;;72.15;30.92;;;1.70;99.90;;;;;;4925309;29;20042;-88
2021/12/06 01:10:50;;;;;;;73.25;28.27;;;1.70;99.90;;;;;;4924445;29;20028;-89
2021/12/06 01:13:19;;;;;;;76.95;31.02;;;1.90;99.90;;;;;;4909925;29;20032;-89
2021/12/06 01:15:47;;;;;;;75.45;31.85;;;2.00;99.90;;;;;;4909952;29;20020;-89
2021/12/06 01:18:16;;;;;;;72.25;32.80;;;2.20;99.90;;;;;;4941606;29;20067;-89
2021/12/06 01:20:54;;;;;;;81.45;32.38;;;1.70;99.90;;;;;;4909549;29;20024;-89
2021/12/06 01:23:25;;;;;;;73.80;30.70;;;1.70;99.90;;;;;;4941329;29;20092;-88
2021/12/06 01:39:12;;;;;;;73.72;30.35;;;1.70;99.90;;;;;;4924655;29;20076;-89
2021/12/06 01:42:11;;;;;;;77.68;31.45;;;2.70;99.90;;;;;;4924524;29;20059;-89
2021/12/06 01:44:43;;;;;;;79.93;31.40;;;1.10;99.90;;;;;;4907287;29;20028;-89
2021/12/06 01:47:39;;;;;;;84.88;31.48;;;2.30;99.90;;;;;;4909025;29;20039;-89
2021/12/06 01:50:17;;;;;;;82.85;32.50;;;2.40;99.90;;;;;;4923898;29;20060;-89
2021/12/06 01:52:48;;;;;;;78.40;32.78;;;2.10;99.90;;;;;;4909027;29;20055;-89
2021/12/06 01:55:20;;;;;;;79.75;34.25;;;1.70;99.90;;;;;;4909107;29;20427;-89
2021/12/06 01:57:48;;;;;;;82.80;34.92;;;2.00;99.90;;;;;;4924156;29;20065;-88
2021/12/06 02:00:29;;;;;;;83.30;32.10;;;2.10;99.90;;;;;;4924577;29;20032;-89
2021/12/06 02:02:54;;;;;;;78.10;32.33;;;1.80;99.90;;;;;;4924315;29;20024;-89
2021/12/06 02:05:20;;;;;;;77.40;32.67;;;1.60;99.90;;;;;;4908144;29;20039;-89
2021/12/06 02:07:46;;;;;;;84.53;34.00;;;2.40;99.90;;;;;;4907851;29;20044;-89
2021/12/06 02:10:12;;;;;;;91.65;37.38;;;1.80;99.90;;;;;;4907601;29;20056;-88
2021/12/06 02:12:38;;;;;;;80.25;35.05;;;1.70;99.90;;;;;;4924010;29;20036;-89
2021/12/06 02:15:26;;;;;;;83.35;35.90;;;1.80;99.90;;;;;;4908098;29;20028;-89
2021/12/06 02:18:02;;;;;;;79.70;33.70;;;1.80;99.90;;;;;;4923642;29;20016;-89
2021/12/06 02:20:30;;;;;;;78.38;32.85;;;1.60;99.90;;;;;;4923769;29;20083;-89
2021/12/06 02:22:56;;;;;;;76.72;30.88;;;2.40;99.90;;;;;;4940367;29;20084;-89
2021/12/06 02:25:25;;;;;;;81.75;32.80;;;1.90;99.90;;;;;;4923756;29;20040;-88
2021/12/06 02:27:55;;;;;;;72.00;32.08;;;1.50;99.90;;;;;;4923560;29;20043;-89
2021/12/06 02:30:21;;;;;;;72.07;31.35;;;1.80;99.90;;;;;;4908441;29;20038;-89
2021/12/06 02:32:50;;;;;;;72.18;31.23;;;2.40;99.90;;;;;;4923408;29;20028;-89
2021/12/06 02:35:19;;;;;;;71.63;30.65;;;1.90;99.90;;;;;;4923612;29;20043;-89
2021/12/06 02:37:46;;;;;;;75.03;33.03;;;1.90;99.90;;;;;;4924116;29;20040;-89
2021/12/06 02:40:19;;;;;;;74.47;33.20;;;1.50;99.90;;;;;;4908255;29;20039;-89
2021/12/06 02:42:47;;;;;;;83.82;33.50;;;1.80;99.90;;;;;;4940200;29;20024;-88
2021/12/06 02:45:19;;;;;;;73.22;32.53;;;2.10;99.90;;;;;;4923858;29;20028;-89
2021/12/06 02:47:52;;;;;;;71.65;32.08;;;1.80;99.90;;;;;;4908661;29;20031;-89
2021/12/06 02:50:19;;;;;;;72.63;32.38;;;2.50;99.90;;;;;;4940386;29;20062;-87
2021/12/06 02:52:45;;;;;;;82.70;32.28;;;1.80;99.90;;;;;;4924774;29;20036;-88
2021/12/06 02:55:29;;;;;;;75.55;32.33;;;2.40;99.90;;;;;;4909127;29;20037;-88
2021/12/06 02:57:58;;;;;;;74.85;30.20;;;1.80;99.90;;;;;;4924999;29;20050;-88
2021/12/06 03:00:26;;;;;;;74.35;31.35;;;1.80;99.90;;;;;;4909084;29;20066;-88
2021/12/06 03:02:52;;;;;;;72.03;31.30;;;1.80;99.90;;;;;;4924165;29;20031;-89
2021/12/06 03:05:18;;;;;;;79.18;33.95;;;1.80;99.90;;;;;;4940315;29;20042;-89
2021/12/06 03:07:47;;;;;;;;;;;1.90;99.90;;;;;;4908267;29;20044;-89
2021/12/06 03:10:18;;;;;;;72.65;32.92;;;2.30;99.90;;;;;;4922972;29;19965;-87
2021/12/06 03:12:44;;;;;;;75.57;31.00;;;1.90;99.90;;;;;;4922756;29;20031;-88
2021/12/06 03:15:11;;;;;;;72.50;31.95;;;2.40;99.90;;;;;;4922779;29;20087;-87
2021/12/06 03:17:37;;;;;;;65.47;29.83;;;2.10;99.90;;;;;;4923202;29;20032;-88
2021/12/06 03:20:06;;;;;;;75.20;31.88;;;1.80;99.90;;;;;;4922970;29;20083;-88
2021/12/06 03:22:33;;;;;;;71.07;31.27;;;1.90;99.90;;;;;;4939879;29;20038;-89
2021/12/06 03:24:59;;;;;;;75.60;32.80;;;1.90;99.90;;;;;;4923285;29;20016;-88
2021/12/06 03:27:24;;;;;;;74.40;32.38;;;1.80;99.90;;;;;;4907117;29;20095;-88
2021/12/06 03:29:50;;;;;;;70.93;30.63;;;1.90;99.90;;;;;;4906743;29;20036;-88
2021/12/06 03:32:16;;;;;;;76.97;33.63;;;1.80;99.90;;;;;;4906966;29;20047;-89
2021/12/06 03:34:43;;;;;;;78.55;33.63;;;1.80;99.90;;;;;;4922781;29;20048;-88
2021/12/06 03:37:08;;;;;;;;;;;1.80;99.90;;;;;;4921826;29;20048;-88
2021/12/06 03:39:42;;;;;;;68.20;25.98;;;2.60;99.90;;;;;;4922078;29;19976;-88
2021/12/06 03:42:10;;;;;;;69.55;30.67;;;2.60;99.90;;;;;;4921385;29;20072;-88
2021/12/06 03:44:36;;;;;;;89.85;37.08;;;1.80;99.90;;;;;;4921977;29;20039;-88
2021/12/06 03:47:12;;;;;;;86.35;32.53;;;1.90;99.90;;;;;;4905647;29;20028;-88
2021/12/06 03:49:38;;;;;;;85.80;32.25;;;1.90;99.90;;;;;;4937742;29;20024;-89
2021/12/06 03:52:05;;;;;;;86.45;36.50;;;1.90;99.90;;;;;;4921331;29;20046;-88
2021/12/06 03:54:31;;;;;;;84.22;35.25;;;1.90;99.90;;;;;;4921205;29;20028;-88
2021/12/06 03:56:58;;;;;;;84.97;37.83;;;1.90;99.90;;;;;;4921085;29;20048;-89
2021/12/06 03:59:24;;;;;;;;;;;1.90;99.90;;;;;;4921664;29;20136;-89
2021/12/06 04:01:50;;;;;;;80.75;34.13;;;2.40;99.90;;;;;;4921322;29;20168;-89
2021/12/06 04:04:19;;;;;;;92.97;34.88;;;1.90;99.90;;;;;;4905957;29;20037;-88
2021/12/06 04:06:46;;;;;;;95.28;36.03;;;1.90;99.90;;;;;;4921044;29;20036;-89
2021/12/06 04:09:12;;;;;;;88.18;35.17;;;1.90;99.90;;;;;;4921696;29;20032;-89
2021/12/06 04:11:39;;;;;;;89.13;34.67;;;1.90;99.90;;;;;;4937881;29;20067;-89
2021/12/06 04:14:06;;;;;;;93.47;37.28;;;1.90;99.90;;;;;;4921587;29;20044;-89
2021/12/06 04:16:32;;;;;;;93.28;35.63;;;1.90;99.90;;;;;;4921046;29;20042;-89
2021/12/06 04:19:15;;;;;;;99.95;35.28;;;1.90;99.90;;;;;;4905292;29;20028;-89
2021/12/06 04:21:43;;;;;;;95.97;38.08;;;1.70;99.90;;;;;;4920562;29;20059;-89
2021/12/06 04:24:10;;;;;;;92.43;37.22;;;2.20;99.90;;;;;;4936336;29;20032;-89
2021/12/06 04:26:36;;;;;;;90.78;35.78;;;1.90;99.90;;;;;;4904174;29;20051;-89
2021/12/06 04:29:03;;;;;;;88.65;34.38;;;1.90;99.90;;;;;;4920522;29;20044;-89
2021/12/06 04:31:34;;;;;;;104.00;38.63;;;1.90;99.90;;;;;;4936759;29;20375;-89
2021/12/06 04:34:00;;;;;;;98.82;37.35;;;1.90;99.90;;;;;;4904828;29;20028;-89
2021/12/06 04:36:28;;;;;;;104.40;39.95;;;2.00;99.90;;;;;;4936542;29;20032;-89
2021/12/06 04:38:54;;;;;;;90.93;34.60;;;1.90;99.90;;;;;;4920363;29;20036;-89
2021/12/06 04:41:20;;;;;;;79.30;30.15;;;2.20;99.90;;;;;;4920153;29;20042;-89
2021/12/06 04:43:49;;;;;;;93.00;35.55;;;2.00;99.90;;;;;;4921043;29;20036;-89
2021/12/06 04:46:15;;;;;;;80.72;31.08;;;2.40;99.90;;;;;;4908328;29;20040;-89
2021/12/06 04:48:40;;;;;;;93.63;33.67;;;1.90;99.90;;;;;;4908377;29;20313;-89
2021/12/06 04:51:06;;;;;;;82.10;31.15;;;2.40;99.90;;;;;;4923566;29;20348;-89
2021/12/06 04:53:36;;;;;;;86.97;32.92;;;1.90;99.90;;;;;;4940341;29;20079;-89
2021/12/06 04:56:05;;;;;;;88.43;33.20;;;1.90;99.90;;;;;;4923359;29;20079;-89
2021/12/06 04:58:41;;;;;;;94.53;33.47;;;1.90;99.90;;;;;;4923504;29;20040;-89
2021/12/06 05:01:11;;;;;;;96.03;34.58;;;1.90;99.90;;;;;;4940124;29;20066;-89
2021/12/06 05:03:40;;;;;;;97.82;36.88;;;1.60;99.90;;;;;;4923645;29;20089;-89
2021/12/06 05:06:18;;;;;;;97.03;38.88;;;1.90;99.90;;;;;;4907708;29;20061;-89
2021/12/06 05:08:49;;;;;;;95.53;36.25;;;2.30;99.90;;;;;;4940198;29;20059;-89
2021/12/06 05:11:20;;;;;;;89.38;33.05;;;2.00;99.90;;;;;;4939863;29;20386;-89
2021/12/06 05:13:47;;;;;;;92.20;32.97;;;2.20;99.90;;;;;;4923965;29;20040;-88
2021/12/06 05:16:13;;;;;;;80.60;30.38;;;2.00;99.90;;;;;;4923829;29;20063;-88
2021/12/06 05:18:48;;;;;;;84.60;32.08;;;2.00;99.90;;;;;;4940111;29;20044;-88
2021/12/06 05:21:14;;;;;;;97.05;36.58;;;2.70;99.90;;;;;;4923741;29;20056;-88
2021/12/06 05:23:40;;;;;;;;;;;2.00;99.90;;;;;;4924120;29;20059;-88
2021/12/06 05:26:09;;;;;;;98.07;32.03;;;2.50;99.90;;;;;;4907528;29;19910;-88
2021/12/06 05:28:41;;;;;;;97.82;34.85;;;2.00;99.90;;;;;;4923708;29;20096;-88
2021/12/06 05:31:15;;;;;;;92.90;33.97;;;2.00;99.90;;;;;;4923250;29;20051;-88
2021/12/06 05:33:44;;;;;;;102.13;34.22;;;2.00;99.90;;;;;;4922983;29;20040;-88
2021/12/06 05:36:10;;;;;;;98.97;35.75;;;1.90;99.90;;;;;;4907726;29;20130;-88
2021/12/06 05:38:38;;;;;;;108.75;35.80;;;2.00;99.90;;;;;;4941679;23;20041;-89
2021/12/06 05:41:05;;;;;;;89.35;32.55;;;2.00;99.90;;;;;;4890475;29;20033;-88
2021/12/06 05:43:31;;;;;;;99.97;35.95;;;1.80;99.90;;;;;;4905783;29;20036;-88
2021/12/06 05:45:58;;;;;;;89.60;32.03;;;2.20;99.90;;;;;;4905884;29;20044;-88
2021/12/06 05:48:24;;;;;;;90.40;31.38;;;2.10;99.90;;;;;;4905739;29;20028;-88
2021/12/06 05:50:51;;;;;;;86.97;33.47;;;2.00;99.90;;;;;;4904921;29;20107;-88
2021/12/06 05:53:17;;;;;;;89.00;29.92;;;2.60;99.90;;;;;;4920735;29;20052;-88
2021/12/06 05:55:45;;;;;;;90.95;32.95;;;2.30;99.90;;;;;;4920784;29;20033;-88
2021/12/06 05:58:17;;;;;;;88.55;32.08;;;2.00;99.90;;;;;;4921587;29;20112;-88
2021/12/06 06:00:43;;;;;;;105.25;34.85;;;1.70;99.90;;;;;;4920379;29;20108;-87
2021/12/06 06:03:10;;;;;;;103.75;35.22;;;1.80;99.90;;;;;;4888267;29;20065;-88
2021/12/06 06:05:37;;;;;;;102.68;35.17;;;1.90;99.90;;;;;;4888563;29;20024;-88
2021/12/06 06:08:07;;;;;;;110.00;36.13;;;2.00;99.90;;;;;;4903888;29;21716;-88
2021/12/06 06:10:35;;;;;;;104.65;35.92;;;2.10;99.90;;;;;;4904524;29;20077;-88
2021/12/06 06:13:03;;;;;;;113.28;38.42;;;1.90;99.90;;;;;;5067036;23;20044;-88
2021/12/06 06:15:30;;;;;;;105.38;34.85;;;2.00;99.90;;;;;;4943090;29;20034;-88
2021/12/06 06:17:57;;;;;;;87.65;30.33;;;2.10;99.90;;;;;;4959134;29;20067;-88
2021/12/06 06:20:30;;;;;;;105.57;35.75;;;2.10;99.90;;;;;;4959249;29;20058;-88
2021/12/06 06:22:56;;;;;;;78.07;28.73;;;2.60;99.90;;;;;;4959685;29;20059;-88
2021/12/06 06:25:22;;;;;;;;;;;2.70;99.90;;;;;;4959139;29;20460;-88
2021/12/06 06:27:48;;;;;;;87.85;32.03;;;2.30;99.90;;;;;;4958544;29;19910;-88
2021/12/06 06:30:15;;;;;;;101.63;32.67;;;2.50;99.90;;;;;;4942526;29;20107;-88
2021/12/06 06:32:42;;;;;;;98.55;33.17;;;2.00;99.90;;;;;;4958404;29;20059;-88
2021/12/06 06:35:11;;;;;;;106.18;37.15;;;2.70;99.90;;;;;;4958313;29;20012;-89
2021/12/06 06:37:37;;;;;;;87.95;31.48;;;1.50;99.90;;;;;;4959079;29;20040;-88
2021/12/06 06:40:06;;;;;;;99.25;32.95;;;2.60;99.90;;;;;;4958531;29;20063;-88
2021/12/06 06:42:32;;;;;;;110.95;36.85;;;2.00;99.90;;;;;;4959263;29;20036;-88
2021/12/06 06:44:58;;;;;;;108.55;37.38;;;2.10;99.90;;;;;;4958213;29;20179;-88
2021/12/06 06:47:24;;;;;;;111.63;38.85;;;2.00;99.90;;;;;;4942262;29;20071;-89
2021/12/06 06:49:50;;;;;;;93.55;35.28;;;3.10;99.90;;;;;;4941973;29;20019;-88
2021/12/06 06:52:19;;;;;;;103.00;35.88;;;2.00;99.90;;;;;;4958558;29;20317;-89
2021/12/06 06:54:44;;;;;;;93.13;32.50;;;2.00;99.90;;;;;;4940726;29;20050;-89
2021/12/06 06:57:10;;;;;;;100.00;32.63;;;2.10;99.90;;;;;;4957226;29;20027;-87
2021/12/06 06:59:36;;;;;;;102.00;37.05;;;2.00;99.90;;;;;;4957154;29;20055;-89
2021/12/06 07:02:02;;;;;;;127.85;39.53;;;2.00;99.90;;;;;;4957239;29;20024;-88
2021/12/06 07:04:28;;;;;;;114.53;36.30;;;2.00;99.90;;;;;;4956205;29;20031;-89
2021/12/06 07:06:54;;;;;;;97.70;34.83;;;2.00;99.90;;;;;;4956283;29;20027;-89
2021/12/06 07:09:20;;;;;;;108.70;35.42;;;1.80;99.90;;;;;;4956264;29;20044;-89
2021/12/06 07:11:46;;;;;;;110.63;34.47;;;2.50;99.90;;;;;;4941160;29;20042;-89
2021/12/06 07:14:16;;;;;;;110.40;38.15;;;2.50;99.90;;;;;;4957271;29;20048;-89
2021/12/06 07:16:44;;;;;;;119.03;36.25;;;2.60;99.90;;;;;;4957664;29;20051;-89
2021/12/06 07:19:10;;;;;;;102.20;36.35;;;2.00;99.90;;;;;;4958248;29;20032;-89
2021/12/06 07:21:36;;;;;;;105.85;36.05;;;2.00;99.90;;;;;;4958196;29;20056;-89
2021/12/06 07:24:03;;;;;;;111.40;36.22;;;2.00;99.90;;;;;;4957051;29;20024;-88
2021/12/06 07:26:29;;;;;;;107.05;35.35;;;1.40;99.90;;;;;;4940221;29;20067;-88
2021/12/06 07:28:56;;;;;;;122.97;37.60;;;2.50;99.90;;;;;;4956059;29;20051;-88
2021/12/06 07:31:23;;;;;;;108.75;35.58;;;2.00;99.90;;;;;;4955695;29;20032;-88
2021/12/06 07:34:12;;;;;;;97.63;34.53;;;2.00;99.90;;;;;;4955773;29;20028;-88
2021/12/06 07:36:38;;;;;;;99.68;37.03;;;2.00;99.90;;;;;;4955619;29;20027;-88
2021/12/06 07:39:06;;;;;;;99.85;33.13;;;2.80;99.90;;;;;;4956397;29;20087;-88
2021/12/06 07:41:34;;;;;;;98.90;33.22;;;2.10;99.90;;;;;;4954798;28;20056;-88
2021/12/06 07:44:02;;;;;;;108.38;36.33;;;2.30;99.90;;;;;;4954611;28;20024;-88
2021/12/06 07:46:28;;;;;;;100.68;35.10;;;2.00;99.90;;;;;;4938008;28;20251;-88
2021/12/06 07:48:54;;;;;;;94.05;33.05;;;2.00;99.90;;;;;;4953868;28;20027;-88
2021/12/06 07:51:20;;;;;;;;;;;2.00;99.90;;;;;;4954627;28;20115;-88
2021/12/06 07:53:46;;;;;;;93.30;33.15;;;2.10;99.90;;;;;;4954570;28;19910;-88
2021/12/06 07:56:12;;;;;;;103.53;33.20;;;3.00;99.90;;;;;;4954083;28;20099;-88
2021/12/06 07:58:38;;;;;;;88.97;33.97;;;2.20;99.90;;;;;;4938261;28;20031;-88
2021/12/06 08:01:04;;;;;;;95.28;32.17;;;2.20;99.90;;;;;;4953901;28;20031;-88
2021/12/06 08:03:33;;;;;;;101.05;32.97;;;2.30;99.90;;;;;;4954538;28;20043;-88
2021/12/06 08:05:59;;;;;;;101.85;36.22;;;2.20;99.90;;;;;;4938063;28;20043;-88
2021/12/06 08:08:34;;;;;;;99.97;33.60;;;2.20;99.90;;;;;;4954364;28;20047;-88
2021/12/06 08:11:04;;;;;;;112.63;37.28;;;2.50;99.90;;;;;;4937805;28;20035;-88
2021/12/06 08:13:32;;;;;;;110.75;36.08;;;2.00;99.90;;;;;;4937352;28;20059;-88
2021/12/06 08:16:02;;;;;;;97.93;34.92;;;2.20;99.90;;;;;;4937967;28;20060;-88
2021/12/06 08:18:27;;;;;;;114.93;38.28;;;2.30;99.90;;;;;;4954756;28;20031;-88
2021/12/06 08:20:54;;;;;;;103.35;33.63;;;2.20;99.90;;;;;;4958147;28;20082;-88
2021/12/06 08:23:19;;;;;;;;;;;2.40;99.90;;;;;;4957938;28;20104;-88
2021/12/06 08:25:48;;;;;;;86.35;31.52;;;2.20;99.90;;;;;;4941534;28;19910;-88
2021/12/06 08:28:15;;;;;;;88.63;31.60;;;2.30;99.90;;;;;;4957429;28;20040;-88
2021/12/06 08:30:44;;;;;;;88.38;31.20;;;2.90;99.90;;;;;;4957422;28;20046;-88
2021/12/06 08:33:11;;;;;;;90.65;35.22;;;2.30;99.90;;;;;;4958172;28;20036;-88
2021/12/06 08:35:41;;;;;;;81.05;31.25;;;2.30;99.90;;;;;;4941258;28;20058;-88
2021/12/06 08:38:08;;;;;;;80.45;31.05;;;2.70;99.90;;;;;;4941230;28;20036;-88
2021/12/06 08:40:34;;;;;;;69.18;27.40;;;2.40;99.90;;;;;;4958231;28;20042;-88
2021/12/06 08:43:00;;;;;;;75.95;30.15;;;2.50;99.90;;;;;;4941311;28;20050;-88
2021/12/06 08:45:29;;;;;;;67.80;24.77;;;2.70;99.90;;;;;;4957037;28;20095;-88
2021/12/06 08:47:56;;;;;;;69.30;27.10;;;3.00;99.90;;;;;;4941086;28;20066;-88
2021/12/06 08:50:22;;;;;;;62.83;25.95;;;2.70;99.90;;;;;;4956904;28;20059;-88
2021/12/06 08:52:50;;;;;;;70.78;28.05;;;3.20;99.90;;;;;;4957942;28;20059;-88
2021/12/06 08:55:17;;;;;;;64.28;27.27;;;2.30;99.90;;;;;;4957084;28;20059;-88
2021/12/06 08:57:44;;;;;;;69.90;26.60;;;2.40;99.90;;;;;;4946151;28;20060;-88
2021/12/06 09:00:14;;;;;;;66.30;27.77;;;2.90;99.90;;;;;;4937462;28;20047;-88
2021/12/06 09:02:40;;;;;;;61.72;24.98;;;2.60;99.90;;;;;;4921645;28;20055;-88
2021/12/06 09:05:07;;;;;;;60.67;24.65;;;2.50;99.90;;;;;;4922267;28;20085;-88
2021/12/06 09:07:33;;;;;;;55.38;23.65;;;2.50;99.90;;;;;;4938038;28;20047;-88
2021/12/06 09:09:59;;;;;;;66.22;27.48;;;2.50;99.90;;;;;;4937971;28;20048;-88
2021/12/06 09:12:27;;;;;;;;;;;2.40;99.90;;;;;;4938106;28;20048;-87
2021/12/06 09:14:56;;;;;;;67.25;26.75;;;2.40;99.90;;;;;;4921686;28;19911;-88
2021/12/06 09:17:22;;;;;;;62.72;25.02;;;2.50;99.90;;;;;;4937474;28;20096;-88
2021/12/06 09:19:49;;;;;;;;;;;2.40;99.90;;;;;;4922432;28;20028;-88
2021/12/06 09:22:15;;;;;;;56.80;20.55;;;2.40;99.90;;;;;;4922091;28;19911;-88
2021/12/06 09:24:41;;;;;;;66.88;25.38;;;2.50;99.90;;;;;;4938448;28;20036;-89
2021/12/06 09:27:08;;;;;;;;;;;2.60;99.90;;;;;;4938084;28;20047;-88
2021/12/06 09:29:36;;;;;;;52.92;21.25;;;2.60;99.90;;;;;;4937499;28;19911;-88
2021/12/06 09:32:05;;;;;;;44.30;19.45;;;2.80;99.90;;;;;;4936880;28;20111;-88
2021/12/06 09:34:31;;;;;;;46.45;21.38;;;2.90;99.90;;;;;;4937410;28;20067;-88
2021/12/06 09:36:57;;;;;;;;;;;2.90;99.90;;;;;;4937859;28;20028;-88
2021/12/06 09:39:23;;;;;;;44.78;19.00;;;2.60;99.90;;;;;;4937702;28;19931;-88
2021/12/06 09:41:50;;;;;;;48.35;21.48;;;2.90;99.90;;;;;;4937726;28;20032;-89
2021/12/06 09:44:15;;;;;;;50.95;20.45;;;1.80;99.90;;;;;;4937424;28;20048;-88
2021/12/06 09:46:42;;;;;;;56.85;24.10;;;2.50;99.90;;;;;;4937292;28;20079;-88
2021/12/06 09:49:15;;;;;;;48.45;20.98;;;2.60;99.90;;;;;;4937481;28;20036;-88
2021/12/06 09:51:44;;;;;;;44.17;22.15;;;2.60;99.90;;;;;;4938587;28;20032;-87
2021/12/06 09:54:14;;;;;;;49.08;22.05;;;2.80;99.90;;;;;;4938179;28;20060;-88
2021/12/06 09:56:42;;;;;;;49.17;21.50;;;3.20;99.90;;;;;;4938280;28;20036;-88
2021/12/06 09:59:15;;;;;;;44.75;22.98;;;2.80;99.90;;;;;;4922620;28;20075;-87
2021/12/06 10:02:02;;;;;;;57.40;21.88;;;3.10;99.90;;;;;;4922220;28;20028;-88
2021/12/06 10:04:30;;;;;;;44.28;20.08;;;2.90;99.90;;;;;;4938529;28;20044;-88
2021/12/06 10:06:57;;;;;;;42.50;20.20;;;3.20;99.90;;;;;;4937615;28;20048;-88
2021/12/06 10:09:24;;;;;;;42.45;19.73;;;2.80;99.90;;;;;;4922341;28;20051;-88
2021/12/06 10:11:52;;;;;;;44.67;20.42;;;2.70;99.90;;;;;;4937571;28;20032;-87
2021/12/06 10:14:18;;;;;;;40.42;19.75;;;3.30;99.90;;;;;;4937482;28;20051;-87
2021/12/06 10:16:44;;;;;;;;;;;2.70;99.90;;;;;;4922284;28;20063;-88
2021/12/06 10:19:13;;;;;;;43.15;19.42;;;3.40;99.90;;;;;;4921719;28;19910;-88
2021/12/06 10:21:39;;;;;;;47.85;20.42;;;2.70;99.90;;;;;;4937337;28;20051;-87
2021/12/06 10:24:16;;;;;;;41.58;20.63;;;2.80;99.90;;;;;;4937477;28;20064;-87
2021/12/06 10:26:45;;;;;;;43.97;18.38;;;2.70;99.90;;;;;;4937515;28;20048;-88
2021/12/06 10:29:22;;;;;;;52.08;22.77;;;2.60;99.90;;;;;;4937219;28;20024;-88
2021/12/06 10:31:52;;;;;;;;;;;2.70;99.90;;;;;;4922327;28;20054;-87
2021/12/06 10:34:24;;;;;;;42.03;19.02;;;2.70;99.90;;;;;;4937530;28;19918;-88
2021/12/06 10:36:51;;;;;;;43.53;18.05;;;2.70;99.90;;;;;;4921611;28;20098;-87
2021/12/06 10:39:22;;;;;;;57.13;23.52;;;2.70;99.90;;;;;;4938114;28;20024;-87
2021/12/06 10:41:51;;;;;;;45.22;19.48;;;2.80;99.90;;;;;;4936915;28;20084;-88
2021/12/06 10:44:19;;;;;;;50.30;21.98;;;2.80;99.90;;;;;;4921492;28;20051;-88
2021/12/06 10:46:50;;;;;;;48.67;23.30;;;2.80;99.90;;;;;;4937241;28;20113;-87
2021/12/06 10:49:19;;;;;;;47.38;20.42;;;2.80;99.90;;;;;;4937139;28;20032;-87
2021/12/06 10:51:45;;;;;;;59.67;24.85;;;2.90;99.90;;;;;;4937320;28;20047;-87
2021/12/06 10:54:35;;;;;;;66.13;27.38;;;2.20;99.90;;;;;;4921460;28;20039;-87
2021/12/06 10:57:03;;;;;;;70.28;30.40;;;2.80;99.90;;;;;;4937531;28;20088;-88
2021/12/06 10:59:37;;;;;;;69.55;28.02;;;3.50;99.90;;;;;;4937153;28;20058;-87
2021/12/06 11:02:18;;;;;;;58.63;26.20;;;2.80;99.90;;;;;;4937499;28;20040;-87
2021/12/06 11:04:44;;;;;;;59.75;25.17;;;2.90;99.90;;;;;;4921150;28;20036;-87
2021/12/06 11:07:11;;;;;;;46.25;19.63;;;2.40;99.90;;;;;;4936520;28;20028;-87
2021/12/06 11:09:39;;;;;;;53.40;22.27;;;2.90;99.90;;;;;;4920964;28;20055;-87
2021/12/06 11:12:07;;;;;;;51.78;22.33;;;3.70;99.90;;;;;;4936285;28;20040;-87
2021/12/06 11:14:38;;;;;;;47.78;20.90;;;2.90;99.90;;;;;;4937093;28;20060;-87
2021/12/06 11:17:21;;;;;;;56.78;23.35;;;2.90;99.90;;;;;;4920914;28;20080;-88
2021/12/06 11:19:51;;;;;;;44.90;19.58;;;2.80;99.90;;;;;;4939516;28;20032;-87
2021/12/06 11:22:24;;;;;;;48.05;20.17;;;3.00;99.90;;;;;;4946784;28;20127;-88
2021/12/06 11:24:51;;;;;;;49.45;21.27;;;2.90;99.90;;;;;;4939402;28;20035;-88
2021/12/06 11:27:25;;;;;;;44.75;22.02;;;2.90;99.90;;;;;;4955830;28;20067;-88
2021/12/06 11:30:03;;;;;;;45.78;19.65;;;2.90;99.90;;;;;;4939304;28;20055;-88
2021/12/06 11:32:35;;;;;;;43.25;20.10;;;3.40;99.90;;;;;;4956158;28;20081;-88
2021/12/06 11:35:16;;;;;;;43.75;19.08;;;2.90;99.90;;;;;;4940320;28;20064;-88
2021/12/06 11:37:52;;;;;;;39.60;17.08;;;3.40;99.90;;;;;;4940954;28;20038;-88
2021/12/06 11:40:21;;;;;;;46.63;20.17;;;3.00;99.90;;;;;;4940827;28;20028;-88
2021/12/06 11:42:59;;;;;;;43.00;20.95;;;3.50;99.90;;;;;;4925044;28;20112;-88
2021/12/06 11:45:43;;;;;;;39.17;17.40;;;3.10;99.90;;;;;;4956174;28;20067;-88
2021/12/06 11:48:12;;;;;;;36.25;18.88;;;3.10;99.90;;;;;;4938880;29;20181;-89
2021/12/06 11:50:44;;;;;;;41.13;17.35;;;3.10;99.90;;;;;;4922935;28;20040;-88
2021/12/06 11:53:13;;;;;;;35.22;18.35;;;3.10;99.90;;;;;;4954605;28;20043;-89
2021/12/06 11:55:52;;;;;;;38.65;17.95;;;3.00;99.90;;;;;;4938417;28;20028;-89
2021/12/06 11:58:44;;;;;;;36.53;18.65;;;3.00;99.90;;;;;;4922894;28;20059;-89
2021/12/06 12:01:18;;;;;;;38.65;17.65;;;3.00;99.90;;;;;;4938754;28;20091;-89
2021/12/06 12:03:53;;;;;;;39.58;19.77;;;3.10;99.90;;;;;;4917234;29;20032;-89
2021/12/06 12:06:44;;;;;;;38.70;19.02;;;3.00;99.90;;;;;;4937634;28;20040;-89
2021/12/06 12:09:31;;;;;;;35.85;16.98;;;3.00;99.90;;;;;;4914244;28;20060;-89
2021/12/06 12:12:25;;;;;;;37.72;18.75;;;2.40;99.90;;;;;;4922771;28;20039;-89
2021/12/06 12:15:24;;;;;;;41.33;18.90;;;3.20;99.90;;;;;;4938419;28;20040;-89
2021/12/06 12:17:58;;;;;;;43.83;19.17;;;3.50;99.90;;;;;;4937470;28;20035;-90
2021/12/06 12:23:12;;;;;;;40.13;21.88;;;3.50;99.90;;;;;;4928772;28;20059;-89
2021/12/06 12:26:01;;;;;;;49.72;21.98;;;3.20;99.90;;;;;;4938616;28;20063;-89
2021/12/06 12:28:38;;;;;;;42.42;22.38;;;3.20;99.90;;;;;;4938212;28;20040;-89
2021/12/06 12:31:09;;;;;;;45.28;21.52;;;4.10;99.90;;;;;;4922368;28;20047;-89
2021/12/06 12:33:35;;;;;;;42.83;20.65;;;3.80;99.90;;;;;;4938366;28;20028;-89
2021/12/06 12:36:12;;;;;;;43.42;21.40;;;3.40;99.90;;;;;;4938530;28;20039;-89
2021/12/06 12:38:41;;;;;;;38.50;19.50;;;3.50;99.90;;;;;;4938300;28;20040;-89
2021/12/06 12:41:12;;;;;;;36.90;17.70;;;3.50;99.90;;;;;;4954303;28;20035;-89
2021/12/06 12:43:43;;;;;;;43.95;19.85;;;3.50;99.90;;;;;;4922624;28;20056;-89
2021/12/06 12:46:21;;;;;;;40.20;19.42;;;4.00;99.90;;;;;;4922876;29;20040;-89
2021/12/06 12:48:54;;;;;;;40.75;20.75;;;3.50;99.90;;;;;;4954667;28;20071;-89
2021/12/06 12:51:24;;;;;;;39.55;18.05;;;4.00;99.90;;;;;;4938132;28;20039;-89
2021/12/06 12:54:06;;;;;;;38.10;19.05;;;3.70;99.90;;;;;;4954949;28;20039;-89
2021/12/06 12:56:37;;;;;;;36.88;17.42;;;3.70;99.90;;;;;;4922132;28;20032;-89
2021/12/06 12:59:25;;;;;;;37.22;18.63;;;3.80;99.90;;;;;;4938347;28;20064;-89
2021/12/06 13:02:20;;;;;;;38.63;18.67;;;4.50;99.90;;;;;;4954663;28;20039;-89
2021/12/06 13:04:58;;;;;;;37.60;18.65;;;3.60;99.90;;;;;;4938997;28;20066;-90
2021/12/06 13:07:41;;;;;;;;;;;;;;;;;;;;;
2021/12/06 13:10:23;;;;;;;45.72;19.75;;;3.60;99.90;;;;;;4941312;28;20036;-89